Terminal Aerodrome Forecast
Issued by NWS

Home | Current Version | Previous Version | Graphics & Text | Print | Product List | Glossary On
Versions: 1 2 3 4 5 6 7 8 9 10 11 12 13 14 15 16
000
FTUS43 KUNR 040520
TAFGCC
TAF
KGCC 040520Z 0406/0506 12012KT P6SM -SHRA OVC040
     FM041200 16012KT P6SM BKN040
     FM041600 16020KT P6SM BKN050=

USA.gov is the U.S. government's official web portal to all federal, state and local government web resources and services.